createdAt,value
2023-05-19T00:02:12.667Z,89.71
2023-05-19T00:05:18.583Z,88.73
2023-05-19T00:08:22.736Z,89.68
2023-05-19T00:11:26.936Z,87.74
2023-05-19T00:14:29.154Z,89.26
2023-05-19T00:17:31.100Z,88.53
2023-05-19T00:20:33.241Z,88.81
2023-05-19T00:23:35.454Z,88.12
2023-05-19T00:26:37.352Z,87.89
2023-05-19T00:29:39.344Z,86.72
2023-05-19T00:32:41.265Z,87.30
2023-05-19T00:35:43.166Z,87.20
2023-05-19T00:38:45.066Z,87.64
2023-05-19T00:41:46.939Z,88.24
2023-05-19T00:44:48.872Z,87.80
2023-05-19T00:47:50.853Z,88.40
2023-05-19T00:51:02.280Z,88.58
2023-05-19T00:54:04.754Z,88.90
2023-05-19T00:57:06.952Z,89.60
2023-05-19T01:00:09.501Z,89.96
2023-05-19T01:03:12.118Z,88.88
2023-05-19T01:06:15.097Z,88.29
2023-05-19T01:09:18.259Z,88.55
2023-05-19T01:12:20.302Z,88.92
2023-05-19T01:15:23.984Z,89.55
2023-05-19T01:18:38.511Z,90.11
2023-05-19T01:22:14.513Z,89.58
2023-05-19T01:25:31.584Z,88.69
2023-05-19T01:29:10.936Z,89.47
2023-05-19T01:32:16.108Z,89.55
2023-05-19T01:35:19.187Z,90.11
2023-05-19T01:38:22.246Z,89.97
2023-05-19T01:41:25.835Z,89.98
2023-05-19T01:44:28.897Z,89.95
2023-05-19T01:47:31.096Z,89.60
2023-05-19T01:50:33.930Z,90.02
2023-05-19T01:53:36.357Z,89.78
2023-05-19T01:56:58.394Z,89.60
2023-05-19T02:00:12.938Z,89.40
2023-05-19T02:03:21.847Z,88.71
2023-05-19T02:06:46.185Z,88.25
2023-05-19T02:09:56.493Z,87.15
2023-05-19T02:13:04.471Z,88.32
2023-05-19T02:16:07.645Z,89.59
2023-05-19T02:19:22.975Z,89.77
2023-05-19T02:22:25.348Z,89.67
2023-05-19T02:25:27.282Z,88.52
2023-05-19T02:28:29.202Z,88.61
2023-05-19T02:31:31.212Z,89.91
2023-05-19T02:34:33.184Z,89.99
2023-05-19T02:37:35.429Z,88.86
2023-05-19T02:40:37.314Z,90.28
2023-05-19T02:43:39.134Z,89.19
2023-05-19T02:46:41.106Z,90.62
2023-05-19T02:49:44.236Z,90.74
2023-05-19T02:52:46.126Z,89.45
2023-05-19T02:55:48.117Z,90.15
2023-05-19T02:58:50.032Z,89.74
2023-05-19T03:01:55.724Z,90.72
2023-05-19T03:04:57.918Z,90.19
2023-05-19T03:07:59.792Z,89.89
2023-05-19T03:11:02.576Z,89.54
2023-05-19T03:14:04.420Z,89.09
2023-05-19T03:17:10.327Z,89.69
2023-05-19T03:20:12.509Z,89.65
2023-05-19T03:23:14.359Z,88.84
2023-05-19T03:26:16.220Z,89.10
2023-05-19T03:29:18.113Z,89.44
2023-05-19T03:32:20.058Z,89.53
2023-05-19T03:35:22.062Z,89.12
2023-05-19T03:38:24.128Z,90.24
2023-05-19T03:41:26.061Z,89.23
2023-05-19T03:44:27.918Z,89.01
2023-05-19T03:47:31.804Z,88.61
2023-05-19T03:50:34.195Z,87.76
2023-05-19T03:53:36.228Z,86.79
2023-05-19T03:56:41.086Z,85.90
2023-05-19T03:59:44.012Z,86.81
2023-05-19T04:02:45.949Z,85.05
2023-05-19T04:05:47.943Z,84.44
2023-05-19T04:08:57.351Z,83.81
2023-05-19T04:11:59.852Z,83.59
2023-05-19T04:15:01.834Z,84.32
2023-05-19T04:18:03.866Z,82.91
2023-05-19T04:21:06.034Z,81.88
2023-05-19T04:24:07.965Z,80.09
2023-05-19T04:27:12.265Z,79.71
2023-05-19T04:30:18.525Z,78.79
2023-05-19T04:33:21.527Z,75.74
2023-05-19T04:36:24.059Z,73.47
2023-05-19T04:39:25.943Z,74.04
2023-05-19T04:42:33.095Z,72.30
2023-05-19T04:45:37.769Z,74.41
2023-05-19T04:48:42.776Z,72.92
2023-05-19T04:51:46.262Z,71.60
2023-05-19T04:54:48.093Z,72.74
2023-05-19T04:57:49.901Z,70.21
2023-05-19T05:00:52.463Z,69.38
2023-05-19T05:03:59.221Z,68.27
2023-05-19T05:07:01.325Z,65.88
2023-05-19T05:10:04.033Z,66.24
2023-05-19T05:13:06.674Z,64.85
2023-05-19T05:16:09.332Z,63.49
2023-05-19T05:19:11.604Z,64.91
2023-05-19T05:22:13.903Z,63.97
2023-05-19T05:25:16.477Z,57.85
2023-05-19T05:28:18.691Z,57.69
2023-05-19T05:31:33.284Z,58.64
2023-05-19T05:34:37.993Z,57.52
2023-05-19T05:37:40.245Z,54.66
2023-05-19T05:40:42.168Z,55.45
2023-05-19T05:43:44.124Z,56.75
2023-05-19T05:46:46.422Z,54.65
2023-05-19T05:49:48.772Z,53.29
2023-05-19T05:52:51.088Z,54.08
2023-05-19T05:55:53.644Z,51.49
2023-05-19T05:58:55.556Z,54.76
2023-05-19T06:01:57.522Z,52.32
2023-05-19T06:04:59.454Z,53.70
2023-05-19T06:08:01.642Z,50.90
2023-05-19T06:11:09.050Z,51.54
2023-05-19T06:14:11.103Z,48.89
2023-05-19T06:17:13.013Z,47.28
2023-05-19T06:20:14.952Z,49.30
2023-05-19T06:23:16.843Z,49.19
2023-05-19T06:26:18.774Z,49.30
2023-05-19T06:29:20.727Z,52.18
2023-05-19T06:32:22.658Z,50.48
2023-05-19T06:35:24.634Z,49.43
2023-05-19T06:38:26.670Z,49.83
2023-05-19T06:41:28.558Z,49.49
2023-05-19T06:44:30.627Z,47.83
2023-05-19T06:47:32.652Z,49.78
2023-05-19T06:50:34.753Z,46.54
2023-05-19T06:53:36.874Z,48.16
2023-05-19T06:56:38.925Z,48.58
2023-05-19T06:59:43.914Z,46.36
2023-05-19T07:02:45.966Z,47.19
2023-05-19T07:05:47.946Z,44.55
2023-05-19T07:08:49.770Z,43.62
2023-05-19T07:11:52.021Z,44.57
2023-05-19T07:14:53.844Z,44.14
2023-05-19T07:17:55.814Z,42.88
2023-05-19T07:20:58.549Z,43.63
2023-05-19T07:24:00.461Z,40.82
2023-05-19T07:27:02.456Z,42.88
2023-05-19T07:30:04.844Z,41.27
2023-05-19T07:33:06.988Z,38.92
2023-05-19T07:36:09.337Z,39.87
2023-05-19T07:39:11.352Z,41.25
2023-05-19T07:42:13.275Z,40.93
2023-05-19T07:45:15.146Z,39.84
2023-05-19T07:48:18.846Z,38.60
2023-05-19T07:51:20.928Z,36.21
2023-05-19T07:54:22.877Z,40.70
2023-05-19T07:57:24.829Z,39.25
2023-05-19T08:00:26.867Z,39.53
2023-05-19T08:03:30.706Z,37.78
2023-05-19T08:06:32.835Z,36.71
2023-05-19T08:09:34.694Z,35.08
2023-05-19T08:12:36.586Z,38.81
2023-05-19T08:15:38.508Z,35.39
2023-05-19T08:18:40.493Z,35.60
2023-05-19T08:21:42.903Z,35.38
2023-05-19T08:24:45.195Z,35.95
2023-05-19T08:27:47.064Z,33.60
2023-05-19T08:30:50.871Z,35.15
2023-05-19T08:33:52.865Z,32.71
2023-05-19T08:36:57.783Z,36.32
2023-05-19T08:39:59.687Z,38.41
2023-05-19T08:43:01.576Z,34.84
2023-05-19T08:46:04.120Z,35.10
2023-05-19T08:49:12.358Z,38.06
2023-05-19T08:52:23.507Z,36.30
2023-05-19T08:55:38.783Z,36.29
2023-05-19T08:58:42.688Z,34.42
2023-05-19T09:01:46.293Z,35.00
2023-05-19T09:04:48.843Z,35.16
2023-05-19T09:07:50.683Z,34.59
2023-05-19T09:10:52.601Z,34.12
2023-05-19T09:13:54.601Z,34.52
2023-05-19T09:16:56.748Z,38.07
2023-05-19T09:20:03.345Z,35.90
2023-05-19T09:23:06.049Z,34.04
2023-05-19T09:26:08.263Z,35.02
2023-05-19T09:29:17.475Z,36.55
2023-05-19T09:32:26.896Z,35.38
2023-05-19T09:35:29.154Z,33.75
2023-05-19T09:38:31.150Z,38.69
2023-05-19T09:41:33.336Z,36.55
2023-05-19T09:44:35.489Z,35.38
2023-05-19T09:47:38.782Z,35.19
2023-05-19T09:50:40.770Z,37.81
2023-05-19T09:53:46.417Z,37.08
2023-05-19T09:57:01.550Z,37.78
2023-05-19T10:00:12.486Z,36.01
2023-05-19T10:03:16.556Z,36.13
2023-05-19T10:06:19.189Z,37.63
2023-05-19T10:09:27.410Z,34.22
2023-05-19T10:12:31.179Z,34.67
2023-05-19T10:15:40.706Z,36.00
2023-05-19T10:18:46.265Z,38.98
2023-05-19T10:21:48.676Z,34.12
2023-05-19T10:24:50.790Z,36.09
2023-05-19T10:28:01.410Z,35.22
2023-05-19T10:31:06.708Z,38.02
2023-05-19T10:34:37.600Z,37.35
2023-05-19T10:38:10.596Z,37.22
2023-05-19T10:42:08.189Z,38.67
2023-05-19T10:45:21.019Z,37.20
2023-05-19T10:48:25.768Z,36.42
2023-05-19T10:51:37.258Z,33.75
2023-05-19T10:54:46.915Z,37.22
2023-05-19T10:57:58.274Z,35.99
2023-05-19T11:01:02.918Z,37.65
2023-05-19T11:04:07.533Z,33.25
2023-05-19T11:07:10.529Z,34.36
2023-05-19T11:10:12.806Z,36.56
2023-05-19T11:13:23.668Z,38.27
2023-05-19T11:16:34.879Z,35.37
2023-05-19T11:19:36.996Z,39.43
2023-05-19T11:22:40.094Z,38.48
2023-05-19T11:25:47.274Z,38.15
2023-05-19T11:28:52.222Z,35.19
2023-05-19T11:31:56.086Z,39.04
2023-05-19T11:34:58.191Z,39.35
2023-05-19T11:38:01.726Z,39.83
2023-05-19T11:41:04.357Z,40.17
2023-05-19T11:44:11.327Z,37.59
2023-05-19T11:47:17.235Z,41.04
2023-05-19T11:50:20.340Z,42.36
2023-05-19T11:53:23.284Z,40.92
2023-05-19T11:56:25.188Z,39.48
2023-05-19T11:59:35.958Z,41.21
2023-05-19T12:02:38.283Z,38.14
2023-05-19T12:05:45.553Z,41.73
2023-05-19T12:08:47.873Z,42.50
2023-05-19T12:11:50.995Z,37.85
2023-05-19T12:14:53.381Z,40.25
2023-05-19T12:18:00.832Z,39.08
2023-05-19T12:21:03.071Z,40.66
2023-05-19T12:24:06.512Z,43.63
2023-05-19T12:27:13.672Z,42.15
2023-05-19T12:30:17.095Z,40.61
2023-05-19T12:33:19.792Z,38.43
2023-05-19T12:36:25.210Z,38.47
2023-05-19T12:39:27.642Z,40.94
2023-05-19T12:42:31.373Z,40.72
2023-05-19T12:45:37.446Z,38.68
2023-05-19T12:48:47.039Z,41.73
2023-05-19T12:51:53.814Z,43.87
2023-05-19T12:55:05.174Z,40.47
2023-05-19T12:58:10.875Z,44.28
2023-05-19T13:01:20.806Z,41.32
2023-05-19T13:04:23.252Z,44.04
2023-05-19T13:07:25.538Z,44.97
2023-05-19T13:10:28.623Z,42.68
2023-05-19T13:13:30.639Z,44.07
2023-05-19T13:16:34.826Z,46.42
2023-05-19T13:19:36.871Z,45.14
2023-05-19T13:22:38.780Z,46.55
2023-05-19T13:25:42.146Z,41.80
2023-05-19T13:28:44.160Z,45.85
2023-05-19T13:31:46.284Z,43.68
2023-05-19T13:34:48.134Z,43.34
2023-05-19T13:37:50.270Z,43.90
2023-05-19T13:40:52.156Z,45.18
2023-05-19T13:43:54.033Z,45.67
2023-05-19T13:46:56.128Z,44.93
2023-05-19T13:49:58.157Z,44.11
2023-05-19T13:53:00.203Z,45.17
2023-05-19T13:56:02.556Z,45.62
2023-05-19T13:59:04.936Z,46.82
2023-05-19T14:02:07.219Z,47.03
2023-05-19T14:05:09.379Z,42.66
2023-05-19T14:08:11.648Z,44.65
2023-05-19T14:11:20.014Z,45.48
2023-05-19T14:14:21.830Z,45.78
2023-05-19T14:17:24.062Z,47.12
2023-05-19T14:20:27.858Z,47.77
2023-05-19T14:23:32.375Z,48.60
2023-05-19T14:26:34.275Z,47.61
2023-05-19T14:29:36.123Z,42.65
2023-05-19T14:32:38.077Z,47.98
2023-05-19T14:35:40.506Z,47.07
2023-05-19T14:38:42.374Z,48.29
2023-05-19T14:41:44.335Z,48.31
2023-05-19T14:44:46.164Z,48.43
2023-05-19T14:47:48.151Z,45.95
2023-05-19T14:50:50.316Z,45.69
2023-05-19T14:53:52.228Z,47.98
2023-05-19T14:56:54.153Z,48.16
2023-05-19T14:59:56.124Z,46.58
2023-05-19T15:02:58.037Z,49.56
2023-05-19T15:06:00.180Z,47.89
2023-05-19T15:09:02.103Z,47.22
2023-05-19T15:12:03.991Z,45.94
2023-05-19T15:15:06.471Z,47.08
2023-05-19T15:18:08.468Z,48.16
2023-05-19T15:21:10.424Z,47.54
2023-05-19T15:24:12.451Z,47.22
2023-05-19T15:27:14.614Z,47.69
2023-05-19T15:30:16.576Z,46.46
2023-05-19T15:33:18.514Z,47.69
2023-05-19T15:36:20.603Z,48.78
2023-05-19T15:39:22.467Z,48.24
2023-05-19T15:42:24.425Z,49.67
2023-05-19T15:45:26.450Z,49.16
2023-05-19T15:48:29.158Z,48.12
2023-05-19T15:51:31.645Z,47.18
2023-05-19T15:54:33.503Z,47.59
2023-05-19T15:57:35.314Z,49.17
2023-05-19T16:00:37.420Z,49.88
2023-05-19T16:03:39.367Z,49.37
2023-05-19T16:06:41.288Z,48.54
2023-05-19T16:09:43.209Z,46.98
2023-05-19T16:12:45.080Z,48.01
2023-05-19T16:15:47.539Z,48.59
2023-05-19T16:18:49.496Z,49.86
2023-05-19T16:21:51.374Z,50.61
2023-05-19T16:24:53.249Z,51.21
2023-05-19T16:27:55.129Z,51.64
2023-05-19T16:31:00.863Z,52.32
2023-05-19T16:34:02.757Z,51.71
2023-05-19T16:37:04.878Z,50.91
2023-05-19T16:40:07.539Z,52.56
2023-05-19T16:43:09.441Z,51.25
2023-05-19T16:46:12.345Z,51.20
2023-05-19T16:49:14.310Z,50.49
2023-05-19T16:52:16.317Z,50.31
2023-05-19T16:55:20.100Z,51.63
2023-05-19T16:58:22.081Z,51.30
2023-05-19T17:01:24.198Z,51.41
2023-05-19T17:04:27.544Z,52.43
2023-05-19T17:07:31.220Z,52.43
2023-05-19T17:10:33.445Z,51.47
2023-05-19T17:13:36.498Z,52.88
2023-05-19T17:16:38.353Z,52.97
2023-05-19T17:19:40.498Z,53.35
2023-05-19T17:22:42.369Z,54.09
2023-05-19T17:25:44.324Z,54.77
2023-05-19T17:28:47.718Z,55.60
2023-05-19T17:31:50.797Z,55.06
2023-05-19T17:34:52.823Z,55.80
2023-05-19T17:37:55.381Z,56.14
2023-05-19T17:41:01.774Z,55.22
2023-05-19T17:44:04.161Z,57.39
2023-05-19T17:47:08.080Z,57.61
2023-05-19T17:50:10.399Z,60.74
2023-05-19T17:53:12.539Z,63.33
2023-05-19T17:56:14.636Z,63.77
2023-05-19T17:59:16.680Z,64.31
2023-05-19T18:02:19.277Z,63.16
2023-05-19T18:05:21.541Z,63.96
2023-05-19T18:08:23.882Z,63.64
2023-05-19T18:11:26.580Z,64.04
2023-05-19T18:14:28.576Z,64.07
2023-05-19T18:17:30.496Z,63.78
2023-05-19T18:20:33.958Z,64.94
2023-05-19T18:23:36.171Z,64.56
2023-05-19T18:26:41.809Z,64.42
2023-05-19T18:29:43.806Z,65.04
2023-05-19T18:32:45.737Z,66.42
2023-05-19T18:35:47.713Z,66.89
2023-05-19T18:38:50.115Z,66.57
2023-05-19T18:41:52.028Z,67.98
2023-05-19T18:44:53.972Z,67.22
2023-05-19T18:47:56.358Z,67.23
2023-05-19T18:50:58.266Z,66.97
2023-05-19T18:54:00.177Z,67.22
2023-05-19T18:57:03.570Z,66.56
2023-05-19T19:00:06.112Z,66.87
2023-05-19T19:03:10.327Z,66.05
2023-05-19T19:06:12.709Z,67.23
2023-05-19T19:09:14.943Z,69.24
2023-05-19T19:12:18.293Z,69.04
2023-05-19T19:15:21.328Z,67.07
2023-05-19T19:18:23.259Z,68.78
2023-05-19T19:21:25.856Z,66.42
2023-05-19T19:24:28.568Z,67.52
2023-05-19T19:27:31.544Z,68.49
2023-05-19T19:30:33.600Z,69.76
2023-05-19T19:33:35.642Z,70.52
2023-05-19T19:36:37.490Z,71.29
2023-05-19T19:39:39.530Z,72.05
2023-05-19T19:42:43.416Z,72.27
2023-05-19T19:45:48.062Z,72.57
2023-05-19T19:48:58.609Z,72.70
2023-05-19T19:52:00.636Z,73.61
2023-05-19T19:55:02.862Z,73.26
2023-05-19T19:58:04.830Z,73.09
2023-05-19T20:01:08.216Z,74.12
2023-05-19T20:04:10.313Z,74.82
2023-05-19T20:07:12.658Z,74.01
2023-05-19T20:10:14.516Z,74.72
2023-05-19T20:13:17.280Z,75.34
2023-05-19T20:16:19.698Z,75.17
2023-05-19T20:19:21.867Z,76.08
2023-05-19T20:22:23.897Z,75.87
2023-05-19T20:25:26.205Z,76.41
2023-05-19T20:28:28.105Z,76.12
2023-05-19T20:31:30.642Z,76.04
2023-05-19T20:34:32.653Z,75.92
2023-05-19T20:37:34.649Z,76.81
2023-05-19T20:40:37.969Z,77.12
2023-05-19T20:43:40.096Z,77.45
2023-05-19T20:46:45.610Z,77.91
2023-05-19T20:49:48.796Z,78.16
2023-05-19T20:53:04.604Z,77.33
2023-05-19T20:56:10.676Z,77.44
2023-05-19T20:59:12.939Z,77.46
2023-05-19T21:02:20.189Z,77.64
2023-05-19T21:05:23.228Z,78.47
2023-05-19T21:08:31.671Z,78.88
2023-05-19T21:11:39.316Z,78.38
2023-05-19T21:14:41.605Z,78.26
2023-05-19T21:17:57.990Z,77.80
2023-05-19T21:21:10.234Z,78.36
2023-05-19T21:24:13.251Z,78.65
2023-05-19T21:27:15.725Z,78.78
2023-05-19T21:30:18.708Z,77.61
2023-05-19T21:33:20.868Z,77.78
2023-05-19T21:36:29.932Z,78.26
2023-05-19T21:39:32.131Z,78.35
2023-05-19T21:42:35.940Z,77.33
2023-05-19T21:45:38.013Z,77.11
2023-05-19T21:48:44.781Z,77.39
2023-05-19T21:51:49.685Z,77.32
2023-05-19T21:54:56.197Z,77.53
2023-05-19T21:58:00.874Z,77.50
2023-05-19T22:01:04.665Z,77.04
2023-05-19T22:04:10.350Z,76.86
2023-05-19T22:07:12.276Z,76.98
2023-05-19T22:10:14.197Z,76.29
2023-05-19T22:13:16.110Z,76.10
2023-05-19T22:16:18.019Z,75.22
2023-05-19T22:19:20.074Z,75.98
2023-05-19T22:22:24.423Z,75.22
2023-05-19T22:25:26.369Z,76.13
2023-05-19T22:28:28.229Z,76.50
2023-05-19T22:31:30.082Z,76.95
2023-05-19T22:34:32.061Z,76.79
2023-05-19T22:37:34.208Z,77.17
2023-05-19T22:40:36.266Z,77.77
2023-05-19T22:43:38.287Z,76.62
2023-05-19T22:46:40.098Z,73.42
2023-05-19T22:49:42.625Z,74.60
2023-05-19T22:52:44.441Z,74.16
2023-05-19T22:55:46.524Z,75.64
2023-05-19T22:58:48.450Z,75.89
2023-05-19T23:01:50.561Z,75.84
2023-05-19T23:04:52.494Z,75.92
2023-05-19T23:07:54.352Z,74.93
2023-05-19T23:11:00.612Z,76.88
2023-05-19T23:14:02.581Z,77.17
2023-05-19T23:17:04.720Z,76.82
2023-05-19T23:20:07.383Z,77.75
2023-05-19T23:23:09.287Z,77.31
2023-05-19T23:26:13.416Z,76.39
2023-05-19T23:29:15.346Z,76.42
2023-05-19T23:32:17.257Z,77.20
2023-05-19T23:35:20.135Z,75.94
2023-05-19T23:38:22.497Z,75.59
2023-05-19T23:41:24.314Z,74.89
2023-05-19T23:44:27.300Z,73.55
2023-05-19T23:47:29.242Z,74.47
2023-05-19T23:50:31.190Z,72.95
2023-05-19T23:53:33.011Z,73.71
2023-05-19T23:56:34.954Z,72.86
2023-05-19T23:59:36.840Z,72.19
